Justice — WDG2184 — position and weather

sailwx.info

Track history (hours):
 
Tides and Currents Weather Stations Pressure Air Temp Water Temp Dewpoint Dewpoint Depression Visibility Wind Speed Wind Dir Waves Ship Positions

Justice

Owner: Boston Towing & Transportation, Boston, MA. More information available from US FCC via Universal Licensing System and Coast Guard Vessel Documentation Center.

Last reported at 2017-Oct-19 03:30 UTC. Time now 2017-Oct-19 03:57 UTC.
Position N 42°23' W 071°03'.

Length 30 m; draft 5.8 m.

Type: Tug. MMSI: 367513010.

Date/timePositionNaut miles runAvg speedWind from/ knotsBaromVisibWave heightAir tempDewpointWater temp
2017-Oct-19 03:30N 42°23' W 071°03'0 0.0
2017-Oct-19 03:00N 42°23' W 071°03'0 0.0
2017-Oct-19 02:30N 42°23' W 071°03'0 0.0
2017-Oct-19 02:00N 42°23' W 071°03'0 0.0
2017-Oct-19 01:30N 42°23' W 071°03'2 3.2
2017-Oct-19 01:00N 42°21' W 071°02'1 2.2
2017-Oct-19 00:30N 42°22' W 071°03'1 2.1
2017-Oct-19 00:00N 42°23' W 071°04'1 1.5
2017-Oct-18 23:30N 42°23' W 071°03'0 0.0
2017-Oct-18 23:00N 42°23' W 071°03'0 0.0
2017-Oct-18 22:30N 42°23' W 071°03'0 0.0
2017-Oct-18 22:00N 42°23' W 071°03'0 0.0
2017-Oct-18 21:30N 42°23' W 071°03'0 0.0
2017-Oct-18 21:00N 42°23' W 071°03'0 0.0
2017-Oct-18 20:30N 42°23' W 071°03'0 0.0
2017-Oct-18 20:00N 42°23' W 071°03'0 0.0
2017-Oct-18 19:30N 42°23' W 071°03'0 0.0
2017-Oct-18 19:00N 42°23' W 071°03'0 0.0
2017-Oct-18 18:30N 42°23' W 071°03'1 2.0
2017-Oct-18 18:00N 42°22' W 071°03'4 7.8
2017-Oct-18 17:30N 42°20' W 070°58'4 8.3
2017-Oct-18 17:00N 42°22' W 071°03'1 2.9
2017-Oct-18 16:30N 42°23' W 071°04'0 0.0
2017-Oct-18 16:00N 42°23' W 071°04'1 1.1
2017-Oct-18 15:30N 42°23' W 071°03'0 1.0
2017-Oct-18 15:00N 42°23' W 071°03'5 5.1
2017-Oct-18 14:01N 42°20' W 070°57'3 6.1
2017-Oct-18 13:30N 42°17' W 070°56'3 6.0
2017-Oct-18 12:57N 42°14' W 070°58'0 0.2
2017-Oct-18 12:08N 42°14' W 070°58'1 4.9
2017-Oct-18 12:00N 42°15' W 070°58'4 8.6
2017-Oct-18 11:30N 42°19' W 070°56'4 7.4
2017-Oct-18 11:00N 42°20' W 071°01'3 5.6
2017-Oct-18 10:30N 42°23' W 071°03'0 0.2
2017-Oct-18 10:00N 42°23' W 071°03'0 0.0
2017-Oct-18 09:30N 42°23' W 071°03'0 0.0
2017-Oct-18 09:00N 42°23' W 071°03'0 0.0
2017-Oct-18 08:30N 42°23' W 071°03'1 1.6
2017-Oct-18 08:00N 42°23' W 071°04'1 1.0
2017-Oct-18 07:30N 42°23' W 071°03'1 1.7
2017-Oct-18 07:00N 42°22' W 071°03'1 2.3
2017-Oct-18 06:30N 42°23' W 071°02'1 2.2
2017-Oct-18 06:00N 42°24' W 071°01'1 2.3
2017-Oct-18 05:30N 42°23' W 071°02'0 0.9
2017-Oct-18 05:00N 42°23' W 071°03'0 0.5
2017-Oct-18 04:31N 42°23' W 071°03'1 2.9
2017-Oct-18 04:00N 42°24' W 071°01'0 0.6
2017-Oct-18 03:30N 42°24' W 071°01'0 0.0
2017-Oct-18 03:00N 42°24' W 071°01'2 3.3
2017-Oct-18 02:30N 42°23' W 071°03'0 0.0
2017-Oct-18 02:00N 42°23' W 071°03'0 0.0
2017-Oct-18 01:29N 42°23' W 071°03'0 0.0
2017-Oct-18 01:00N 42°23' W 071°03'3 5.1
2017-Oct-18 00:30N 42°21' W 071°01'0 0.1
2017-Oct-18 00:00N 42°21' W 071°01'3 5.0
2017-Oct-17 23:30N 42°23' W 071°03'0 0.0
2017-Oct-17 22:52N 42°23' W 071°03'0 0.0
2017-Oct-17 22:30N 42°23' W 071°03'0 0.0
2017-Oct-17 21:53N 42°23' W 071°03'0 0.0
2017-Oct-17 21:00N 42°23' W 071°03'0 0.0
2017-Oct-17 18:44N 42°23' W 071°03'0 0.0
2017-Oct-17 18:30N 42°23' W 071°03'0 0.0
2017-Oct-17 18:00N 42°23' W 071°03'0 0.0
2017-Oct-17 16:45N 42°23' W 071°03'0 0.0
2017-Oct-17 16:18N 42°23' W 071°03'0 0.0
2017-Oct-17 15:59N 42°23' W 071°03'1 2.2
2017-Oct-17 15:31N 42°23' W 071°04'0 0.1
2017-Oct-17 15:00N 42°23' W 071°04'0 0.3
2017-Oct-17 14:31N 42°23' W 071°04'1 1.8
2017-Oct-17 14:01N 42°23' W 071°03'2 4.1
2017-Oct-17 13:30N 42°21' W 071°01'3 5.7
2017-Oct-17 13:00N 42°20' W 070°58'0 1.0
2017-Oct-17 12:30N 42°21' W 070°58'0 0.9
2017-Oct-17 12:00N 42°21' W 070°58'3 5.8
2017-Oct-17 11:30N 42°21' W 071°02'0 0.4
2017-Oct-17 11:00N 42°21' W 071°02'0 0.8
2017-Oct-17 10:30N 42°21' W 071°02'2 4.5
2017-Oct-17 10:00N 42°23' W 071°03'0 0.0
2017-Oct-17 09:30N 42°23' W 071°03'0 0.0
2017-Oct-17 09:00N 42°23' W 071°03'0 0.0
2017-Oct-17 08:30N 42°23' W 071°03'0 0.0
2017-Oct-17 08:00N 42°23' W 071°03'0 0.0
2017-Oct-17 07:30N 42°23' W 071°03'0 0.0
2017-Oct-17 07:00N 42°23' W 071°03'0 0.0
2017-Oct-17 06:30N 42°23' W 071°03'0 0.0
2017-Oct-17 06:00N 42°23' W 071°03'0 0.0
2017-Oct-17 05:30N 42°23' W 071°03'0 0.0
2017-Oct-17 05:00N 42°23' W 071°03'0 0.6
2017-Oct-17 04:30N 42°23' W 071°03'0 0.0
2017-Oct-17 04:00N 42°23' W 071°03'0 0.0
2017-Oct-17 03:30N 42°23' W 071°03'0 0.0
2017-Oct-17 03:00N 42°23' W 071°03'0 0.0
2017-Oct-17 02:30N 42°23' W 071°03'0 0.0
2017-Oct-17 02:00N 42°23' W 071°03'0 0.0
2017-Oct-17 01:30N 42°23' W 071°03'0 0.1
2017-Oct-17 01:00N 42°23' W 071°03'0 0.0
2017-Oct-17 00:30N 42°23' W 071°03'0 0.0
2017-Oct-17 00:00N 42°23' W 071°03'0 0.7
2017-Oct-16 23:31N 42°23' W 071°02'1 1.6
2017-Oct-16 23:01N 42°23' W 071°01'1 1.5
2017-Oct-16 22:30N 42°23' W 071°02'0 1.0
2017-Oct-16 22:01N 42°23' W 071°02'1 1.8
2017-Oct-16 21:30N 42°24' W 071°01'0 0.3
2017-Oct-16 21:00N 42°24' W 071°01'1 2.2
2017-Oct-16 20:30N 42°23' W 071°02'1 1.3
2017-Oct-16 20:00N 42°23' W 071°03'0 0.0
2017-Oct-16 19:30N 42°23' W 071°03'0 0.0
2017-Oct-16 19:00N 42°23' W 071°03'0 0.0
2017-Oct-16 18:30N 42°23' W 071°03'0 0.0
2017-Oct-16 18:00N 42°23' W 071°03'0 0.0
2017-Oct-16 17:30N 42°23' W 071°03'1 2.3
2017-Oct-16 17:00N 42°22' W 071°02'4 8.2
2017-Oct-16 16:30N 42°20' W 070°57'4 7.7
2017-Oct-16 16:00N 42°16' W 070°56'3 5.5
2017-Oct-16 15:30N 42°14' W 070°58'0 0.8
2017-Oct-16 14:57N 42°15' W 070°58'5 5.2
2017-Oct-16 14:00N 42°19' W 070°55'2 4.6
2017-Oct-16 13:30N 42°17' W 070°56'3 5.2
2017-Oct-16 13:00N 42°15' W 070°59'0 0.4
2017-Oct-16 12:30N 42°15' W 070°59'2 4.1
2017-Oct-16 12:00N 42°16' W 070°56'3 6.5
2017-Oct-16 11:31N 42°19' W 070°54'0 0.5
2017-Oct-16 11:00N 42°19' W 070°55'4 7.8
2017-Oct-16 10:30N 42°20' W 070°60'3 6.6
2017-Oct-16 10:00N 42°23' W 071°03'0 0.0
2017-Oct-16 09:30N 42°23' W 071°03'0 0.0
2017-Oct-16 09:00N 42°23' W 071°03'0 0.0
2017-Oct-16 08:30N 42°23' W 071°03'0 0.0
2017-Oct-16 08:00N 42°23' W 071°03'0 0.0
2017-Oct-16 07:30N 42°23' W 071°03'0 0.0
2017-Oct-16 07:00N 42°23' W 071°03'0 0.0
2017-Oct-16 06:30N 42°23' W 071°03'0 0.0
2017-Oct-16 06:00N 42°23' W 071°03'0 0.0
2017-Oct-16 05:30N 42°23' W 071°03'0 0.0
2017-Oct-16 05:00N 42°23' W 071°03'0 0.0
2017-Oct-16 04:30N 42°23' W 071°03'0 0.0
2017-Oct-16 04:00N 42°23' W 071°03'0 0.0
2017-Oct-16 03:30N 42°23' W 071°03'0 0.0
2017-Oct-16 03:00N 42°23' W 071°03'0 0.0
2017-Oct-16 02:30N 42°23' W 071°03'0 0.0
2017-Oct-16 02:00N 42°23' W 071°03'0 0.0
2017-Oct-16 01:30N 42°23' W 071°03'0 0.0
2017-Oct-16 01:00N 42°23' W 071°03'0 0.0
2017-Oct-16 00:30N 42°23' W 071°03'1 1.1
2017-Oct-16 00:00N 42°23' W 071°03'1 2.4
2017-Oct-15 23:30N 42°22' W 071°03'1 1.8
2017-Oct-15 23:00N 42°23' W 071°03'0 0.0
2017-Oct-15 22:30N 42°23' W 071°03'1 1.3
2017-Oct-15 21:49N 42°23' W 071°01'0 0.6
2017-Oct-15 21:30N 42°23' W 071°01'0 0.6
2017-Oct-15 21:00N 42°24' W 071°01'0 0.0
2017-Oct-15 20:30N 42°24' W 071°01'1 1.1
2017-Oct-15 20:00N 42°23' W 071°02'1 3.0
2017-Oct-15 19:30N 42°22' W 071°03'0 0.3
2017-Oct-15 19:00N 42°22' W 071°03'1 1.5
2017-Oct-15 18:30N 42°23' W 071°03'0 0.0
2017-Oct-15 18:00N 42°23' W 071°03'0 0.0
2017-Oct-15 17:30N 42°23' W 071°03'0 0.0
2017-Oct-15 17:00N 42°23' W 071°03'0 0.0
2017-Oct-15 16:30N 42°23' W 071°03'1 1.1
2017-Oct-15 16:00N 42°23' W 071°03'1 1.6
2017-Oct-15 15:30N 42°22' W 071°03'1 2.0
2017-Oct-15 15:00N 42°23' W 071°02'0 0.5
2017-Oct-15 14:01N 42°23' W 071°01'1 1.4
2017-Oct-15 13:30N 42°24' W 071°01'2 4.0
2017-Oct-15 13:01N 42°23' W 071°03'0 0.2
2017-Oct-15 12:30N 42°23' W 071°03'0 0.0
2017-Oct-15 12:00N 42°23' W 071°03'0 0.5
2017-Oct-15 11:30N 42°23' W 071°04'0 0.0
2017-Oct-15 11:00N 42°23' W 071°04'0 0.7
2017-Oct-15 10:30N 42°23' W 071°03'0 0.9
2017-Oct-15 10:00N 42°23' W 071°03'2 3.1
2017-Oct-15 09:30N 42°21' W 071°02'1 1.5
2017-Oct-15 09:00N 42°22' W 071°03'1 1.8
2017-Oct-15 08:30N 42°23' W 071°03'0 0.1
2017-Oct-15 08:00N 42°23' W 071°03'0 0.0
2017-Oct-15 07:30N 42°23' W 071°03'0 0.0
2017-Oct-15 07:00N 42°23' W 071°03'0 0.0
2017-Oct-15 06:30N 42°23' W 071°03'0 0.0
2017-Oct-15 06:00N 42°23' W 071°03'0 0.0
2017-Oct-15 05:30N 42°23' W 071°03'2 3.6
2017-Oct-15 05:00N 42°24' W 071°01'0 0.0
2017-Oct-15 04:30N 42°24' W 071°01'0 0.1
2017-Oct-15 04:00N 42°24' W 071°01'1 2.9
2017-Oct-15 03:30N 42°23' W 071°02'0 0.7
2017-Oct-15 03:00N 42°23' W 071°03'0 0.0
2017-Oct-15 02:30N 42°23' W 071°03'0 0.0
2017-Oct-15 02:00N 42°23' W 071°03'0 0.0
2017-Oct-15 01:30N 42°23' W 071°03'0 0.0
2017-Oct-15 01:00N 42°23' W 071°03'0 0.0
2017-Oct-15 00:30N 42°23' W 071°03'0 0.0
2017-Oct-15 00:00N 42°23' W 071°03'0 0.0
2017-Oct-14 23:30N 42°23' W 071°03'0 0.0
2017-Oct-14 23:00N 42°23' W 071°03'0 0.9
2017-Oct-14 22:30N 42°22' W 071°03'3 6.4
2017-Oct-14 22:01N 42°20' W 070°60'1 2.1
2017-Oct-14 21:30N 42°21' W 071°01'0 0.6
2017-Oct-14 21:00N 42°21' W 071°01'0 0.0
2017-Oct-14 20:30N 42°21' W 071°01'0 0.0
2017-Oct-14 20:00N 42°21' W 071°01'0 0.7
2017-Oct-14 19:31N 42°21' W 071°01'3 5.7
2017-Oct-14 19:00N 42°23' W 071°03'0 0.0
2017-Oct-14 18:31N 42°23' W 071°03'1 2.5
2017-Oct-14 18:00N 42°22' W 071°03'0 0.5
2017-Oct-14 17:30N 42°22' W 071°03'1 1.9
2017-Oct-14 17:00N 42°23' W 071°03'0 0.0
2017-Oct-14 16:30N 42°23' W 071°03'0 0.0
2017-Oct-14 16:00N 42°23' W 071°03'0 0.0
2017-Oct-14 15:30N 42°23' W 071°03'0 0.0
2017-Oct-14 15:00N 42°23' W 071°03'0 0.0
2017-Oct-14 14:30N 42°23' W 071°03'0 0.0
2017-Oct-14 14:00N 42°23' W 071°03'0 0.0
2017-Oct-14 13:30N 42°23' W 071°03'1 2.2
2017-Oct-14 13:00N 42°23' W 071°01'0 0.7
2017-Oct-14 12:30N 42°24' W 071°01'0 0.7
2017-Oct-14 12:01N 42°23' W 071°01'1 2.9
2017-Oct-14 11:30N 42°22' W 071°03'2 4.6
2017-Oct-14 11:00N 42°21' W 071°01'1 2.7
2017-Oct-14 10:30N 42°20' W 070°59'1 1.6
2017-Oct-14 10:00N 42°20' W 070°58'2 4.3
2017-Oct-14 09:30N 42°21' W 071°01'2 4.7
2017-Oct-14 09:00N 42°23' W 071°03'0 0.0
2017-Oct-14 08:30N 42°23' W 071°03'0 0.0
2017-Oct-14 08:00N 42°23' W 071°03'0 0.0
2017-Oct-14 07:30N 42°23' W 071°03'0 0.0
2017-Oct-14 07:00N 42°23' W 071°03'0 0.0
2017-Oct-14 06:30N 42°23' W 071°03'0 0.0
2017-Oct-14 06:00N 42°23' W 071°03'0 0.0
2017-Oct-14 05:30N 42°23' W 071°03'0 0.0
2017-Oct-14 05:00N 42°23' W 071°03'0 0.0
2017-Oct-14 04:30N 42°23' W 071°03'0 0.0
2017-Oct-14 04:00N 42°23' W 071°03'0 0.0
2017-Oct-14 03:30N 42°23' W 071°03'0 0.0
2017-Oct-14 03:00N 42°23' W 071°03'0 0.0
2017-Oct-14 02:30N 42°23' W 071°03'2 3.4
2017-Oct-14 02:00N 42°24' W 071°01'1 1.3
2017-Oct-14 01:28N 42°23' W 071°01'1 2.7
2017-Oct-14 01:00N 42°23' W 071°03'0 0.4
2017-Oct-14 00:30N 42°23' W 071°03'0 0.0
2017-Oct-14 00:00N 42°23' W 071°03'0 0.0
2017-Oct-13 23:27N 42°23' W 071°03'0 0.0
2017-Oct-13 23:00N 42°23' W 071°03'0 0.0
2017-Oct-13 22:30N 42°23' W 071°03'0 0.0
2017-Oct-13 22:00N 42°23' W 071°03'0 0.0
2017-Oct-13 21:30N 42°23' W 071°03'0 0.0
2017-Oct-13 21:00N 42°23' W 071°03'0 0.0
2017-Oct-13 20:30N 42°23' W 071°03'0 0.0
2017-Oct-13 20:00N 42°23' W 071°03'0 0.0
2017-Oct-13 19:30N 42°23' W 071°03'0 0.0
2017-Oct-13 19:00N 42°23' W 071°03'0 0.0
2017-Oct-13 18:30N 42°23' W 071°03'0 0.0
2017-Oct-13 18:00N 42°23' W 071°03'1 1.3
2017-Oct-13 17:30N 42°23' W 071°03'0 0.2
2017-Oct-13 17:00N 42°23' W 071°03'1 1.1
2017-Oct-13 16:30N 42°23' W 071°03'0 0.0
2017-Oct-13 16:00N 42°23' W 071°03'0 0.0
2017-Oct-13 15:30N 42°23' W 071°03'0 0.0
2017-Oct-13 15:00N 42°23' W 071°03'0 0.0
2017-Oct-13 14:30N 42°23' W 071°03'0 0.0
2017-Oct-13 14:00N 42°23' W 071°03'0 0.0
2017-Oct-13 13:30N 42°23' W 071°03'0 0.0
2017-Oct-13 13:00N 42°23' W 071°03'0 0.0
2017-Oct-13 12:30N 42°23' W 071°03'0 0.0
2017-Oct-13 12:00N 42°23' W 071°03'0 0.0
2017-Oct-13 11:30N 42°23' W 071°03'0 0.0
2017-Oct-13 11:01N 42°23' W 071°03'0 0.0
2017-Oct-13 10:30N 42°23' W 071°03'0 0.0
2017-Oct-13 10:00N 42°23' W 071°03'0 0.0
2017-Oct-13 09:30N 42°23' W 071°03'0 0.0
2017-Oct-13 09:00N 42°23' W 071°03'0 0.0
2017-Oct-13 08:30N 42°23' W 071°03'0 0.0
2017-Oct-13 08:00N 42°23' W 071°03'0 0.0
2017-Oct-13 07:30N 42°23' W 071°03'0 0.0
2017-Oct-13 07:00N 42°23' W 071°03'0 0.0
2017-Oct-13 06:30N 42°23' W 071°03'0 0.0
2017-Oct-13 06:00N 42°23' W 071°03'0 0.0
2017-Oct-13 05:30N 42°23' W 071°03'0 0.0
2017-Oct-13 05:00N 42°23' W 071°03'0 0.0
2017-Oct-13 04:30N 42°23' W 071°03'0 0.0
2017-Oct-13 04:00N 42°23' W 071°03'0 0.0
2017-Oct-13 03:30N 42°23' W 071°03'0 0.0
2017-Oct-13 03:00N 42°23' W 071°03'0 0.0
2017-Oct-13 02:30N 42°23' W 071°03'0 0.0
2017-Oct-13 02:00N 42°23' W 071°03'0 0.0
2017-Oct-13 01:30N 42°23' W 071°03'0 0.0
2017-Oct-13 01:00N 42°23' W 071°03'0 0.0
2017-Oct-13 00:30N 42°23' W 071°03'0 0.0
2017-Oct-13 00:00N 42°23' W 071°03'0 0.0
2017-Oct-12 23:30N 42°23' W 071°03'0 0.9
2017-Oct-12 23:00N 42°22' W 071°03'1 2.8
2017-Oct-12 22:31N 42°23' W 071°01'0 0.8
2017-Oct-12 22:01N 42°24' W 071°01'2 4.2
2017-Oct-12 21:30N 42°22' W 071°03'0 0.7
2017-Oct-12 21:00N 42°22' W 071°03'2 3.7
2017-Oct-12 20:31N 42°21' W 071°01'0 0.5
2017-Oct-12 20:00N 42°21' W 071°01'3 5.0
2017-Oct-12 19:30N 42°23' W 071°03'0 0.0
2017-Oct-12 19:00N 42°23' W 071°03'0 0.0
2017-Oct-12 18:30N 42°23' W 071°03'0 0.0
2017-Oct-12 18:00N 42°23' W 071°03'0 0.0
2017-Oct-12 17:30N 42°23' W 071°03'0 0.0
2017-Oct-12 17:00N 42°23' W 071°03'0 0.0
2017-Oct-12 16:30N 42°23' W 071°03'0 0.0
2017-Oct-12 16:00N 42°23' W 071°03'0 0.0
2017-Oct-12 15:30N 42°23' W 071°03'0 0.0
2017-Oct-12 15:00N 42°23' W 071°03'0 0.1
2017-Oct-12 14:31N 42°23' W 071°03'1 1.5
2017-Oct-12 14:00N 42°22' W 071°03'0 1.0
2017-Oct-12 13:30N 42°22' W 071°03'1 2.6
2017-Oct-12 13:00N 42°21' W 071°02'1 2.8
2017-Oct-12 12:30N 42°22' W 071°03'0 0.3
2017-Oct-12 12:00N 42°22' W 071°02'1 2.6
2017-Oct-12 11:30N 42°21' W 071°02'0 0.3
2017-Oct-12 11:01N 42°21' W 071°02'1 1.7
2017-Oct-12 10:31N 42°21' W 071°01'1 2.5
2017-Oct-12 10:00N 42°20' W 070°59'2 3.6
2017-Oct-12 09:30N 42°21' W 071°02'0 0.0
2017-Oct-12 09:00N 42°21' W 071°02'0 0.7
2017-Oct-12 08:30N 42°21' W 071°01'1 1.6
2017-Oct-12 08:00N 42°20' W 071°00'0 0.4
2017-Oct-12 07:30N 42°20' W 071°00'2 3.9
2017-Oct-12 07:00N 42°22' W 071°02'2 3.4
2017-Oct-12 06:30N 42°23' W 071°03'0 0.8
2017-Oct-12 06:00N 42°23' W 071°04'0 0.0
2017-Oct-12 05:30N 42°23' W 071°04'1 1.7
2017-Oct-12 05:00N 42°23' W 071°03'0 0.4
2017-Oct-12 04:30N 42°23' W 071°03'0 0.2
2017-Oct-12 04:00N 42°23' W 071°03'0 0.0
2017-Oct-12 03:30N 42°23' W 071°03'0 0.0
2017-Oct-12 03:00N 42°23' W 071°03'0 0.0
2017-Oct-12 02:30N 42°23' W 071°03'0 0.0
2017-Oct-12 02:00N 42°23' W 071°03'0 0.0
2017-Oct-12 01:30N 42°23' W 071°03'0 0.0
2017-Oct-12 01:00N 42°23' W 071°03'0 0.0
2017-Oct-12 00:30N 42°23' W 071°03'0 0.6
2017-Oct-12 00:00N 42°23' W 071°03'0 0.0
2017-Oct-11 23:30N 42°23' W 071°03'0 0.0
2017-Oct-11 23:00N 42°23' W 071°03'1 2.4
2017-Oct-11 22:30N 42°22' W 071°03'3 6.5
2017-Oct-11 22:00N 42°20' W 070°59'4 7.4
2017-Oct-11 21:30N 42°17' W 070°56'3 5.6
2017-Oct-11 21:00N 42°15' W 070°58'5 0.3
2017-Oct-11 00:00N 42°20' W 070°58'2 3.9
2017-Oct-10 23:30N 42°20' W 071°00'3 6.3
2017-Oct-10 23:01N 42°23' W 071°03'1 1.4
2017-Oct-10 22:31N 42°23' W 071°02'1 2.0
2017-Oct-10 22:00N 42°24' W 071°01'1 1.4
2017-Oct-10 21:30N 42°23' W 071°01'1 1.9
2017-Oct-10 21:00N 42°23' W 071°03'0 0.6
2017-Oct-10 20:31N 42°23' W 071°03'0 0.6
2017-Oct-10 20:00N 42°23' W 071°03'0 0.1
2017-Oct-10 19:30N 42°23' W 071°03'0 0.0
2017-Oct-10 19:00N 42°23' W 071°03'0 0.2
2017-Oct-10 18:30N 42°23' W 071°03'1 1.4
2017-Oct-10 18:00N 42°23' W 071°04'1 2.2
2017-Oct-10 17:30N 42°22' W 071°03'4 8.7
2017-Oct-10 17:00N 42°20' W 070°58'4 7.5
2017-Oct-10 16:30N 42°17' W 070°56'3 1.1
2017-Oct-10 14:00N 42°14' W 070°58'1 1.5
2017-Oct-10 13:30N 42°15' W 070°58'3 5.7
2017-Oct-10 13:00N 42°17' W 070°56'2 4.3
2017-Oct-10 12:30N 42°19' W 070°54'510.1
2017-Oct-10 12:00N 42°20' W 071°01'2 4.5
2017-Oct-10 11:30N 42°22' W 071°03'1 1.4
2017-Oct-10 11:00N 42°23' W 071°03'0 0.0
2017-Oct-10 10:30N 42°23' W 071°03'0 0.0
2017-Oct-10 10:00N 42°23' W 071°03'0 0.0
2017-Oct-10 09:31N 42°23' W 071°03'0 0.0
2017-Oct-10 09:00N 42°23' W 071°03'1 1.2
2017-Oct-10 08:31N 42°23' W 071°02'1 1.5
2017-Oct-10 08:00N 42°24' W 071°01'2 3.2
2017-Oct-10 07:30N 42°23' W 071°03'0 0.1
2017-Oct-10 07:00N 42°23' W 071°03'1 1.4
2017-Oct-10 06:31N 42°22' W 071°03'2 3.1
2017-Oct-10 06:00N 42°21' W 071°02'2 3.3
2017-Oct-10 05:30N 42°23' W 071°03'0 0.6
2017-Oct-10 05:00N 42°23' W 071°03'0 0.0
2017-Oct-10 04:30N 42°23' W 071°03'0 0.0
2017-Oct-10 04:00N 42°23' W 071°03'0 0.0
2017-Oct-10 03:30N 42°23' W 071°03'0 0.0
2017-Oct-10 03:00N 42°23' W 071°03'0 0.0
2017-Oct-10 02:30N 42°23' W 071°03'0 0.0
2017-Oct-10 02:00N 42°23' W 071°03'0 0.0
2017-Oct-10 01:30N 42°23' W 071°03'1 1.1
2017-Oct-10 01:00N 42°22' W 071°03'2 4.2
2017-Oct-10 00:31N 42°21' W 071°01'0 1.0
2017-Oct-10 00:00N 42°21' W 071°02'0 0.4
2017-Oct-09 23:30N 42°21' W 071°02'0 0.0
2017-Oct-09 22:59N 42°21' W 071°02'0 0.1
2017-Oct-09 22:31N 42°21' W 071°02'0 0.5
2017-Oct-09 22:00N 42°21' W 071°02'0 0.7
2017-Oct-09 21:26N 42°21' W 071°02'0 0.0
2017-Oct-09 21:01N 42°21' W 071°02'0 0.3
2017-Oct-09 20:30N 42°21' W 071°02'2 4.7
2017-Oct-09 20:01N 42°23' W 071°03'0 0.1
2017-Oct-09 19:30N 42°23' W 071°03'0 0.0
2017-Oct-09 19:00N 42°23' W 071°03'1 1.2
2017-Oct-09 18:30N 42°23' W 071°03'0 0.3
2017-Oct-09 18:00N 42°23' W 071°03'1 1.2
2017-Oct-09 17:30N 42°23' W 071°03'2 4.0
2017-Oct-09 17:00N 42°21' W 071°02'2 4.0
2017-Oct-09 16:30N 42°23' W 071°02'1 2.1
2017-Oct-09 16:00N 42°24' W 071°01'1 2.8
2017-Oct-09 15:30N 42°23' W 071°03'2 3.6
2017-Oct-09 15:00N 42°21' W 071°02'2 3.1
2017-Oct-09 14:30N 42°23' W 071°03'0 0.0
2017-Oct-09 14:00N 42°23' W 071°03'0 0.0
2017-Oct-09 13:30N 42°23' W 071°03'0 0.0
2017-Oct-09 13:00N 42°23' W 071°03'0 0.0
2017-Oct-09 12:30N 42°23' W 071°03'0 0.0
2017-Oct-09 12:00N 42°23' W 071°03'0 0.0
2017-Oct-09 11:30N 42°23' W 071°03'0 0.0
2017-Oct-09 11:00N 42°23' W 071°03'0 0.6
2017-Oct-09 10:30N 42°23' W 071°03'1 2.1
2017-Oct-09 10:00N 42°23' W 071°02'1 1.5
2017-Oct-09 09:31N 42°23' W 071°03'0 0.0
2017-Oct-09 09:00N 42°23' W 071°03'0 0.0
2017-Oct-09 08:30N 42°23' W 071°03'0 0.0
2017-Oct-09 08:00N 42°23' W 071°03'0 0.0
2017-Oct-09 07:30N 42°23' W 071°03'0 0.0
2017-Oct-09 07:00N 42°23' W 071°03'0 0.1
2017-Oct-09 06:30N 42°23' W 071°03'0 0.0
2017-Oct-09 06:00N 42°23' W 071°03'0 0.9
2017-Oct-09 05:30N 42°23' W 071°02'0 0.9
2017-Oct-09 05:00N 42°23' W 071°02'1 1.1
2017-Oct-09 04:30N 42°24' W 071°01'1 2.7
2017-Oct-09 04:00N 42°23' W 071°03'  
Track history (hours):
 
Tides and Currents Weather Stations Pressure Air Temp Water Temp Dewpoint Dewpoint Depression Visibility Wind Speed Wind Dir Waves Ship Positions

Justice

Owner: Boston Towing & Transportation, Boston, MA. More information available from US FCC via Universal Licensing System and Coast Guard Vessel Documentation Center.

Last reported at 2017-Oct-19 03:30 UTC. Time now 2017-Oct-19 03:57 UTC.
Position N 42°23' W 071°03'.

Length 30 m; draft 5.8 m.

Type: Tug. MMSI: 367513010.

Date/timePositionNaut miles runAvg speedWind from/ knotsBaromVisibWave heightAir tempDewpointWater temp
2017-Oct-19 03:30N 42°23' W 071°03'0 0.0
2017-Oct-19 03:00N 42°23' W 071°03'0 0.0
2017-Oct-19 02:30N 42°23' W 071°03'0 0.0
2017-Oct-19 02:00N 42°23' W 071°03'0 0.0
2017-Oct-19 01:30N 42°23' W 071°03'2 3.2
2017-Oct-19 01:00N 42°21' W 071°02'1 2.2
2017-Oct-19 00:30N 42°22' W 071°03'1 2.1
2017-Oct-19 00:00N 42°23' W 071°04'1 1.5
2017-Oct-18 23:30N 42°23' W 071°03'0 0.0
2017-Oct-18 23:00N 42°23' W 071°03'0 0.0
2017-Oct-18 22:30N 42°23' W 071°03'0 0.0
2017-Oct-18 22:00N 42°23' W 071°03'0 0.0
2017-Oct-18 21:30N 42°23' W 071°03'0 0.0
2017-Oct-18 21:00N 42°23' W 071°03'0 0.0
2017-Oct-18 20:30N 42°23' W 071°03'0 0.0
2017-Oct-18 20:00N 42°23' W 071°03'0 0.0
2017-Oct-18 19:30N 42°23' W 071°03'0 0.0
2017-Oct-18 19:00N 42°23' W 071°03'0 0.0
2017-Oct-18 18:30N 42°23' W 071°03'1 2.0
2017-Oct-18 18:00N 42°22' W 071°03'4 7.8
2017-Oct-18 17:30N 42°20' W 070°58'4 8.3
2017-Oct-18 17:00N 42°22' W 071°03'1 2.9
2017-Oct-18 16:30N 42°23' W 071°04'0 0.0
2017-Oct-18 16:00N 42°23' W 071°04'1 1.1
2017-Oct-18 15:30N 42°23' W 071°03'0 1.0
2017-Oct-18 15:00N 42°23' W 071°03'5 5.1
2017-Oct-18 14:01N 42°20' W 070°57'3 6.1
2017-Oct-18 13:30N 42°17' W 070°56'3 6.0
2017-Oct-18 12:57N 42°14' W 070°58'0 0.2
2017-Oct-18 12:08N 42°14' W 070°58'1 4.9
2017-Oct-18 12:00N 42°15' W 070°58'4 8.6
2017-Oct-18 11:30N 42°19' W 070°56'4 7.4
2017-Oct-18 11:00N 42°20' W 071°01'3 5.6
2017-Oct-18 10:30N 42°23' W 071°03'0 0.2
2017-Oct-18 10:00N 42°23' W 071°03'0 0.0
2017-Oct-18 09:30N 42°23' W 071°03'0 0.0
2017-Oct-18 09:00N 42°23' W 071°03'0 0.0
2017-Oct-18 08:30N 42°23' W 071°03'1 1.6
2017-Oct-18 08:00N 42°23' W 071°04'1 1.0
2017-Oct-18 07:30N 42°23' W 071°03'1 1.7
2017-Oct-18 07:00N 42°22' W 071°03'1 2.3
2017-Oct-18 06:30N 42°23' W 071°02'1 2.2
2017-Oct-18 06:00N 42°24' W 071°01'1 2.3
2017-Oct-18 05:30N 42°23' W 071°02'0 0.9
2017-Oct-18 05:00N 42°23' W 071°03'0 0.5
2017-Oct-18 04:31N 42°23' W 071°03'1 2.9
2017-Oct-18 04:00N 42°24' W 071°01'0 0.6
2017-Oct-18 03:30N 42°24' W 071°01'0 0.0
2017-Oct-18 03:00N 42°24' W 071°01'2 3.3
2017-Oct-18 02:30N 42°23' W 071°03'0 0.0
2017-Oct-18 02:00N 42°23' W 071°03'0 0.0
2017-Oct-18 01:29N 42°23' W 071°03'0 0.0
2017-Oct-18 01:00N 42°23' W 071°03'3 5.1
2017-Oct-18 00:30N 42°21' W 071°01'0 0.1
2017-Oct-18 00:00N 42°21' W 071°01'3 5.0
2017-Oct-17 23:30N 42°23' W 071°03'0 0.0
2017-Oct-17 22:52N 42°23' W 071°03'0 0.0
2017-Oct-17 22:30N 42°23' W 071°03'0 0.0
2017-Oct-17 21:53N 42°23' W 071°03'0 0.0
2017-Oct-17 21:00N 42°23' W 071°03'0 0.0
2017-Oct-17 18:44N 42°23' W 071°03'0 0.0
2017-Oct-17 18:30N 42°23' W 071°03'0 0.0
2017-Oct-17 18:00N 42°23' W 071°03'0 0.0
2017-Oct-17 16:45N 42°23' W 071°03'0 0.0
2017-Oct-17 16:18N 42°23' W 071°03'0 0.0
2017-Oct-17 15:59N 42°23' W 071°03'1 2.2
2017-Oct-17 15:31N 42°23' W 071°04'0 0.1
2017-Oct-17 15:00N 42°23' W 071°04'0 0.3
2017-Oct-17 14:31N 42°23' W 071°04'1 1.8
2017-Oct-17 14:01N 42°23' W 071°03'2 4.1
2017-Oct-17 13:30N 42°21' W 071°01'3 5.7
2017-Oct-17 13:00N 42°20' W 070°58'0 1.0
2017-Oct-17 12:30N 42°21' W 070°58'0 0.9
2017-Oct-17 12:00N 42°21' W 070°58'3 5.8
2017-Oct-17 11:30N 42°21' W 071°02'0 0.4
2017-Oct-17 11:00N 42°21' W 071°02'0 0.8
2017-Oct-17 10:30N 42°21' W 071°02'2 4.5
2017-Oct-17 10:00N 42°23' W 071°03'0 0.0
2017-Oct-17 09:30N 42°23' W 071°03'0 0.0
2017-Oct-17 09:00N 42°23' W 071°03'0 0.0
2017-Oct-17 08:30N 42°23' W 071°03'0 0.0
2017-Oct-17 08:00N 42°23' W 071°03'0 0.0
2017-Oct-17 07:30N 42°23' W 071°03'0 0.0
2017-Oct-17 07:00N 42°23' W 071°03'0 0.0
2017-Oct-17 06:30N 42°23' W 071°03'0 0.0
2017-Oct-17 06:00N 42°23' W 071°03'0 0.0
2017-Oct-17 05:30N 42°23' W 071°03'0 0.0
2017-Oct-17 05:00N 42°23' W 071°03'0 0.6
2017-Oct-17 04:30N 42°23' W 071°03'0 0.0
2017-Oct-17 04:00N 42°23' W 071°03'0 0.0
2017-Oct-17 03:30N 42°23' W 071°03'0 0.0
2017-Oct-17 03:00N 42°23' W 071°03'0 0.0
2017-Oct-17 02:30N 42°23' W 071°03'0 0.0
2017-Oct-17 02:00N 42°23' W 071°03'0 0.0
2017-Oct-17 01:30N 42°23' W 071°03'0 0.1
2017-Oct-17 01:00N 42°23' W 071°03'0 0.0
2017-Oct-17 00:30N 42°23' W 071°03'0 0.0
2017-Oct-17 00:00N 42°23' W 071°03'0 0.7
2017-Oct-16 23:31N 42°23' W 071°02'1 1.6
2017-Oct-16 23:01N 42°23' W 071°01'1 1.5
2017-Oct-16 22:30N 42°23' W 071°02'0 1.0
2017-Oct-16 22:01N 42°23' W 071°02'1 1.8
2017-Oct-16 21:30N 42°24' W 071°01'0 0.3
2017-Oct-16 21:00N 42°24' W 071°01'1 2.2
2017-Oct-16 20:30N 42°23' W 071°02'1 1.3
2017-Oct-16 20:00N 42°23' W 071°03'0 0.0
2017-Oct-16 19:30N 42°23' W 071°03'0 0.0
2017-Oct-16 19:00N 42°23' W 071°03'0 0.0
2017-Oct-16 18:30N 42°23' W 071°03'0 0.0
2017-Oct-16 18:00N 42°23' W 071°03'0 0.0
2017-Oct-16 17:30N 42°23' W 071°03'1 2.3
2017-Oct-16 17:00N 42°22' W 071°02'4 8.2
2017-Oct-16 16:30N 42°20' W 070°57'4 7.7
2017-Oct-16 16:00N 42°16' W 070°56'3 5.5
2017-Oct-16 15:30N 42°14' W 070°58'0 0.8
2017-Oct-16 14:57N 42°15' W 070°58'5 5.2
2017-Oct-16 14:00N 42°19' W 070°55'2 4.6
2017-Oct-16 13:30N 42°17' W 070°56'3 5.2
2017-Oct-16 13:00N 42°15' W 070°59'0 0.4
2017-Oct-16 12:30N 42°15' W 070°59'2 4.1
2017-Oct-16 12:00N 42°16' W 070°56'3 6.5
2017-Oct-16 11:31N 42°19' W 070°54'0 0.5
2017-Oct-16 11:00N 42°19' W 070°55'4 7.8
2017-Oct-16 10:30N 42°20' W 070°60'3 6.6
2017-Oct-16 10:00N 42°23' W 071°03'0 0.0
2017-Oct-16 09:30N 42°23' W 071°03'0 0.0
2017-Oct-16 09:00N 42°23' W 071°03'0 0.0
2017-Oct-16 08:30N 42°23' W 071°03'0 0.0
2017-Oct-16 08:00N 42°23' W 071°03'0 0.0
2017-Oct-16 07:30N 42°23' W 071°03'0 0.0
2017-Oct-16 07:00N 42°23' W 071°03'0 0.0
2017-Oct-16 06:30N 42°23' W 071°03'0 0.0
2017-Oct-16 06:00N 42°23' W 071°03'0 0.0
2017-Oct-16 05:30N 42°23' W 071°03'0 0.0
2017-Oct-16 05:00N 42°23' W 071°03'0 0.0
2017-Oct-16 04:30N 42°23' W 071°03'0 0.0
2017-Oct-16 04:00N 42°23' W 071°03'0 0.0
2017-Oct-16 03:30N 42°23' W 071°03'0 0.0
2017-Oct-16 03:00N 42°23' W 071°03'0 0.0
2017-Oct-16 02:30N 42°23' W 071°03'0 0.0
2017-Oct-16 02:00N 42°23' W 071°03'0 0.0
2017-Oct-16 01:30N 42°23' W 071°03'0 0.0
2017-Oct-16 01:00N 42°23' W 071°03'0 0.0
2017-Oct-16 00:30N 42°23' W 071°03'1 1.1
2017-Oct-16 00:00N 42°23' W 071°03'1 2.4
2017-Oct-15 23:30N 42°22' W 071°03'1 1.8
2017-Oct-15 23:00N 42°23' W 071°03'0 0.0
2017-Oct-15 22:30N 42°23' W 071°03'1 1.3
2017-Oct-15 21:49N 42°23' W 071°01'0 0.6
2017-Oct-15 21:30N 42°23' W 071°01'0 0.6
2017-Oct-15 21:00N 42°24' W 071°01'0 0.0
2017-Oct-15 20:30N 42°24' W 071°01'1 1.1
2017-Oct-15 20:00N 42°23' W 071°02'1 3.0
2017-Oct-15 19:30N 42°22' W 071°03'0 0.3
2017-Oct-15 19:00N 42°22' W 071°03'1 1.5
2017-Oct-15 18:30N 42°23' W 071°03'0 0.0
2017-Oct-15 18:00N 42°23' W 071°03'0 0.0
2017-Oct-15 17:30N 42°23' W 071°03'0 0.0
2017-Oct-15 17:00N 42°23' W 071°03'0 0.0
2017-Oct-15 16:30N 42°23' W 071°03'1 1.1
2017-Oct-15 16:00N 42°23' W 071°03'1 1.6
2017-Oct-15 15:30N 42°22' W 071°03'1 2.0
2017-Oct-15 15:00N 42°23' W 071°02'0 0.5
2017-Oct-15 14:01N 42°23' W 071°01'1 1.4
2017-Oct-15 13:30N 42°24' W 071°01'2 4.0
2017-Oct-15 13:01N 42°23' W 071°03'0 0.2
2017-Oct-15 12:30N 42°23' W 071°03'0 0.0
2017-Oct-15 12:00N 42°23' W 071°03'0 0.5
2017-Oct-15 11:30N 42°23' W 071°04'0 0.0
2017-Oct-15 11:00N 42°23' W 071°04'0 0.7
2017-Oct-15 10:30N 42°23' W 071°03'0 0.9
2017-Oct-15 10:00N 42°23' W 071°03'2 3.1
2017-Oct-15 09:30N 42°21' W 071°02'1 1.5
2017-Oct-15 09:00N 42°22' W 071°03'1 1.8
2017-Oct-15 08:30N 42°23' W 071°03'0 0.1
2017-Oct-15 08:00N 42°23' W 071°03'0 0.0
2017-Oct-15 07:30N 42°23' W 071°03'0 0.0
2017-Oct-15 07:00N 42°23' W 071°03'0 0.0
2017-Oct-15 06:30N 42°23' W 071°03'0 0.0
2017-Oct-15 06:00N 42°23' W 071°03'0 0.0
2017-Oct-15 05:30N 42°23' W 071°03'2 3.6
2017-Oct-15 05:00N 42°24' W 071°01'0 0.0
2017-Oct-15 04:30N 42°24' W 071°01'0 0.1
2017-Oct-15 04:00N 42°24' W 071°01'1 2.9
2017-Oct-15 03:30N 42°23' W 071°02'0 0.7
2017-Oct-15 03:00N 42°23' W 071°03'0 0.0
2017-Oct-15 02:30N 42°23' W 071°03'0 0.0
2017-Oct-15 02:00N 42°23' W 071°03'0 0.0
2017-Oct-15 01:30N 42°23' W 071°03'0 0.0
2017-Oct-15 01:00N 42°23' W 071°03'0 0.0
2017-Oct-15 00:30N 42°23' W 071°03'0 0.0
2017-Oct-15 00:00N 42°23' W 071°03'0 0.0
2017-Oct-14 23:30N 42°23' W 071°03'0 0.0
2017-Oct-14 23:00N 42°23' W 071°03'0 0.9
2017-Oct-14 22:30N 42°22' W 071°03'3 6.4
2017-Oct-14 22:01N 42°20' W 070°60'1 2.1
2017-Oct-14 21:30N 42°21' W 071°01'0 0.6
2017-Oct-14 21:00N 42°21' W 071°01'0 0.0
2017-Oct-14 20:30N 42°21' W 071°01'0 0.0
2017-Oct-14 20:00N 42°21' W 071°01'0 0.7
2017-Oct-14 19:31N 42°21' W 071°01'3 5.7
2017-Oct-14 19:00N 42°23' W 071°03'0 0.0
2017-Oct-14 18:31N 42°23' W 071°03'1 2.5
2017-Oct-14 18:00N 42°22' W 071°03'0 0.5
2017-Oct-14 17:30N 42°22' W 071°03'1 1.9
2017-Oct-14 17:00N 42°23' W 071°03'0 0.0
2017-Oct-14 16:30N 42°23' W 071°03'0 0.0
2017-Oct-14 16:00N 42°23' W 071°03'0 0.0
2017-Oct-14 15:30N 42°23' W 071°03'0 0.0
2017-Oct-14 15:00N 42°23' W 071°03'0 0.0
2017-Oct-14 14:30N 42°23' W 071°03'0 0.0
2017-Oct-14 14:00N 42°23' W 071°03'0 0.0
2017-Oct-14 13:30N 42°23' W 071°03'1 2.2
2017-Oct-14 13:00N 42°23' W 071°01'0 0.7
2017-Oct-14 12:30N 42°24' W 071°01'0 0.7
2017-Oct-14 12:01N 42°23' W 071°01'1 2.9
2017-Oct-14 11:30N 42°22' W 071°03'2 4.6
2017-Oct-14 11:00N 42°21' W 071°01'1 2.7
2017-Oct-14 10:30N 42°20' W 070°59'1 1.6
2017-Oct-14 10:00N 42°20' W 070°58'2 4.3
2017-Oct-14 09:30N 42°21' W 071°01'2 4.7
2017-Oct-14 09:00N 42°23' W 071°03'0 0.0
2017-Oct-14 08:30N 42°23' W 071°03'0 0.0
2017-Oct-14 08:00N 42°23' W 071°03'0 0.0
2017-Oct-14 07:30N 42°23' W 071°03'0 0.0
2017-Oct-14 07:00N 42°23' W 071°03'0 0.0
2017-Oct-14 06:30N 42°23' W 071°03'0 0.0
2017-Oct-14 06:00N 42°23' W 071°03'0 0.0
2017-Oct-14 05:30N 42°23' W 071°03'0 0.0
2017-Oct-14 05:00N 42°23' W 071°03'0 0.0
2017-Oct-14 04:30N 42°23' W 071°03'0 0.0
2017-Oct-14 04:00N 42°23' W 071°03'0 0.0
2017-Oct-14 03:30N 42°23' W 071°03'0 0.0
2017-Oct-14 03:00N 42°23' W 071°03'0 0.0
2017-Oct-14 02:30N 42°23' W 071°03'2 3.4
2017-Oct-14 02:00N 42°24' W 071°01'1 1.3
2017-Oct-14 01:28N 42°23' W 071°01'1 2.7
2017-Oct-14 01:00N 42°23' W 071°03'0 0.4
2017-Oct-14 00:30N 42°23' W 071°03'0 0.0
2017-Oct-14 00:00N 42°23' W 071°03'0 0.0
2017-Oct-13 23:27N 42°23' W 071°03'0 0.0
2017-Oct-13 23:00N 42°23' W 071°03'0 0.0
2017-Oct-13 22:30N 42°23' W 071°03'0 0.0
2017-Oct-13 22:00N 42°23' W 071°03'0 0.0
2017-Oct-13 21:30N 42°23' W 071°03'0 0.0
2017-Oct-13 21:00N 42°23' W 071°03'0 0.0
2017-Oct-13 20:30N 42°23' W 071°03'0 0.0
2017-Oct-13 20:00N 42°23' W 071°03'0 0.0
2017-Oct-13 19:30N 42°23' W 071°03'0 0.0
2017-Oct-13 19:00N 42°23' W 071°03'0 0.0
2017-Oct-13 18:30N 42°23' W 071°03'0 0.0
2017-Oct-13 18:00N 42°23' W 071°03'1 1.3
2017-Oct-13 17:30N 42°23' W 071°03'0 0.2
2017-Oct-13 17:00N 42°23' W 071°03'1 1.1
2017-Oct-13 16:30N 42°23' W 071°03'0 0.0
2017-Oct-13 16:00N 42°23' W 071°03'0 0.0
2017-Oct-13 15:30N 42°23' W 071°03'0 0.0
2017-Oct-13 15:00N 42°23' W 071°03'0 0.0
2017-Oct-13 14:30N 42°23' W 071°03'0 0.0
2017-Oct-13 14:00N 42°23' W 071°03'0 0.0
2017-Oct-13 13:30N 42°23' W 071°03'0 0.0
2017-Oct-13 13:00N 42°23' W 071°03'0 0.0
2017-Oct-13 12:30N 42°23' W 071°03'0 0.0
2017-Oct-13 12:00N 42°23' W 071°03'0 0.0
2017-Oct-13 11:30N 42°23' W 071°03'0 0.0
2017-Oct-13 11:01N 42°23' W 071°03'0 0.0
2017-Oct-13 10:30N 42°23' W 071°03'0 0.0
2017-Oct-13 10:00N 42°23' W 071°03'0 0.0
2017-Oct-13 09:30N 42°23' W 071°03'0 0.0
2017-Oct-13 09:00N 42°23' W 071°03'0 0.0
2017-Oct-13 08:30N 42°23' W 071°03'0 0.0
2017-Oct-13 08:00N 42°23' W 071°03'0 0.0
2017-Oct-13 07:30N 42°23' W 071°03'0 0.0
2017-Oct-13 07:00N 42°23' W 071°03'0 0.0
2017-Oct-13 06:30N 42°23' W 071°03'0 0.0
2017-Oct-13 06:00N 42°23' W 071°03'0 0.0
2017-Oct-13 05:30N 42°23' W 071°03'0 0.0
2017-Oct-13 05:00N 42°23' W 071°03'0 0.0
2017-Oct-13 04:30N 42°23' W 071°03'0 0.0
2017-Oct-13 04:00N 42°23' W 071°03'0 0.0
2017-Oct-13 03:30N 42°23' W 071°03'0 0.0
2017-Oct-13 03:00N 42°23' W 071°03'0 0.0
2017-Oct-13 02:30N 42°23' W 071°03'0 0.0
2017-Oct-13 02:00N 42°23' W 071°03'0 0.0
2017-Oct-13 01:30N 42°23' W 071°03'0 0.0
2017-Oct-13 01:00N 42°23' W 071°03'0 0.0
2017-Oct-13 00:30N 42°23' W 071°03'0 0.0
2017-Oct-13 00:00N 42°23' W 071°03'0 0.0
2017-Oct-12 23:30N 42°23' W 071°03'0 0.9
2017-Oct-12 23:00N 42°22' W 071°03'1 2.8
2017-Oct-12 22:31N 42°23' W 071°01'0 0.8
2017-Oct-12 22:01N 42°24' W 071°01'2 4.2
2017-Oct-12 21:30N 42°22' W 071°03'0 0.7
2017-Oct-12 21:00N 42°22' W 071°03'2 3.7
2017-Oct-12 20:31N 42°21' W 071°01'0 0.5
2017-Oct-12 20:00N 42°21' W 071°01'3 5.0
2017-Oct-12 19:30N 42°23' W 071°03'0 0.0
2017-Oct-12 19:00N 42°23' W 071°03'0 0.0
2017-Oct-12 18:30N 42°23' W 071°03'0 0.0
2017-Oct-12 18:00N 42°23' W 071°03'0 0.0
2017-Oct-12 17:30N 42°23' W 071°03'0 0.0
2017-Oct-12 17:00N 42°23' W 071°03'0 0.0
2017-Oct-12 16:30N 42°23' W 071°03'0 0.0
2017-Oct-12 16:00N 42°23' W 071°03'0 0.0
2017-Oct-12 15:30N 42°23' W 071°03'0 0.0
2017-Oct-12 15:00N 42°23' W 071°03'0 0.1
2017-Oct-12 14:31N 42°23' W 071°03'1 1.5
2017-Oct-12 14:00N 42°22' W 071°03'0 1.0
2017-Oct-12 13:30N 42°22' W 071°03'1 2.6
2017-Oct-12 13:00N 42°21' W 071°02'1 2.8
2017-Oct-12 12:30N 42°22' W 071°03'0 0.3
2017-Oct-12 12:00N 42°22' W 071°02'1 2.6
2017-Oct-12 11:30N 42°21' W 071°02'0 0.3
2017-Oct-12 11:01N 42°21' W 071°02'1 1.7
2017-Oct-12 10:31N 42°21' W 071°01'1 2.5
2017-Oct-12 10:00N 42°20' W 070°59'2 3.6
2017-Oct-12 09:30N 42°21' W 071°02'0 0.0
2017-Oct-12 09:00N 42°21' W 071°02'0 0.7
2017-Oct-12 08:30N 42°21' W 071°01'1 1.6
2017-Oct-12 08:00N 42°20' W 071°00'0 0.4
2017-Oct-12 07:30N 42°20' W 071°00'2 3.9
2017-Oct-12 07:00N 42°22' W 071°02'2 3.4
2017-Oct-12 06:30N 42°23' W 071°03'0 0.8
2017-Oct-12 06:00N 42°23' W 071°04'0 0.0
2017-Oct-12 05:30N 42°23' W 071°04'1 1.7
2017-Oct-12 05:00N 42°23' W 071°03'0 0.4
2017-Oct-12 04:30N 42°23' W 071°03'0 0.2
2017-Oct-12 04:00N 42°23' W 071°03'0 0.0
2017-Oct-12 03:30N 42°23' W 071°03'0 0.0
2017-Oct-12 03:00N 42°23' W 071°03'0 0.0
2017-Oct-12 02:30N 42°23' W 071°03'0 0.0
2017-Oct-12 02:00N 42°23' W 071°03'0 0.0
2017-Oct-12 01:30N 42°23' W 071°03'0 0.0
2017-Oct-12 01:00N 42°23' W 071°03'0 0.0
2017-Oct-12 00:30N 42°23' W 071°03'0 0.6
2017-Oct-12 00:00N 42°23' W 071°03'0 0.0
2017-Oct-11 23:30N 42°23' W 071°03'0 0.0
2017-Oct-11 23:00N 42°23' W 071°03'1 2.4
2017-Oct-11 22:30N 42°22' W 071°03'3 6.5
2017-Oct-11 22:00N 42°20' W 070°59'4 7.4
2017-Oct-11 21:30N 42°17' W 070°56'3 5.6
2017-Oct-11 21:00N 42°15' W 070°58'5 0.3
2017-Oct-11 00:00N 42°20' W 070°58'2 3.9
2017-Oct-10 23:30N 42°20' W 071°00'3 6.3
2017-Oct-10 23:01N 42°23' W 071°03'1 1.4
2017-Oct-10 22:31N 42°23' W 071°02'1 2.0
2017-Oct-10 22:00N 42°24' W 071°01'1 1.4
2017-Oct-10 21:30N 42°23' W 071°01'1 1.9
2017-Oct-10 21:00N 42°23' W 071°03'0 0.6
2017-Oct-10 20:31N 42°23' W 071°03'0 0.6
2017-Oct-10 20:00N 42°23' W 071°03'0 0.1
2017-Oct-10 19:30N 42°23' W 071°03'0 0.0
2017-Oct-10 19:00N 42°23' W 071°03'0 0.2
2017-Oct-10 18:30N 42°23' W 071°03'1 1.4
2017-Oct-10 18:00N 42°23' W 071°04'1 2.2
2017-Oct-10 17:30N 42°22' W 071°03'4 8.7
2017-Oct-10 17:00N 42°20' W 070°58'4 7.5
2017-Oct-10 16:30N 42°17' W 070°56'3 1.1
2017-Oct-10 14:00N 42°14' W 070°58'1 1.5
2017-Oct-10 13:30N 42°15' W 070°58'3 5.7
2017-Oct-10 13:00N 42°17' W 070°56'2 4.3
2017-Oct-10 12:30N 42°19' W 070°54'510.1
2017-Oct-10 12:00N 42°20' W 071°01'2 4.5
2017-Oct-10 11:30N 42°22' W 071°03'1 1.4
2017-Oct-10 11:00N 42°23' W 071°03'0 0.0
2017-Oct-10 10:30N 42°23' W 071°03'0 0.0
2017-Oct-10 10:00N 42°23' W 071°03'0 0.0
2017-Oct-10 09:31N 42°23' W 071°03'0 0.0
2017-Oct-10 09:00N 42°23' W 071°03'1 1.2
2017-Oct-10 08:31N 42°23' W 071°02'1 1.5
2017-Oct-10 08:00N 42°24' W 071°01'2 3.2
2017-Oct-10 07:30N 42°23' W 071°03'0 0.1
2017-Oct-10 07:00N 42°23' W 071°03'1 1.4
2017-Oct-10 06:31N 42°22' W 071°03'2 3.1
2017-Oct-10 06:00N 42°21' W 071°02'2 3.3
2017-Oct-10 05:30N 42°23' W 071°03'0 0.6
2017-Oct-10 05:00N 42°23' W 071°03'0 0.0
2017-Oct-10 04:30N 42°23' W 071°03'0 0.0
2017-Oct-10 04:00N 42°23' W 071°03'0 0.0
2017-Oct-10 03:30N 42°23' W 071°03'0 0.0
2017-Oct-10 03:00N 42°23' W 071°03'0 0.0
2017-Oct-10 02:30N 42°23' W 071°03'0 0.0
2017-Oct-10 02:00N 42°23' W 071°03'0 0.0
2017-Oct-10 01:30N 42°23' W 071°03'1 1.1
2017-Oct-10 01:00N 42°22' W 071°03'2 4.2
2017-Oct-10 00:31N 42°21' W 071°01'0 1.0
2017-Oct-10 00:00N 42°21' W 071°02'0 0.4
2017-Oct-09 23:30N 42°21' W 071°02'0 0.0
2017-Oct-09 22:59N 42°21' W 071°02'0 0.1
2017-Oct-09 22:31N 42°21' W 071°02'0 0.5
2017-Oct-09 22:00N 42°21' W 071°02'0 0.7
2017-Oct-09 21:26N 42°21' W 071°02'0 0.0
2017-Oct-09 21:01N 42°21' W 071°02'0 0.3
2017-Oct-09 20:30N 42°21' W 071°02'2 4.7
2017-Oct-09 20:01N 42°23' W 071°03'0 0.1
2017-Oct-09 19:30N 42°23' W 071°03'0 0.0
2017-Oct-09 19:00N 42°23' W 071°03'1 1.2
2017-Oct-09 18:30N 42°23' W 071°03'0 0.3
2017-Oct-09 18:00N 42°23' W 071°03'1 1.2
2017-Oct-09 17:30N 42°23' W 071°03'2 4.0
2017-Oct-09 17:00N 42°21' W 071°02'2 4.0
2017-Oct-09 16:30N 42°23' W 071°02'1 2.1
2017-Oct-09 16:00N 42°24' W 071°01'1 2.8
2017-Oct-09 15:30N 42°23' W 071°03'2 3.6
2017-Oct-09 15:00N 42°21' W 071°02'2 3.1
2017-Oct-09 14:30N 42°23' W 071°03'0 0.0
2017-Oct-09 14:00N 42°23' W 071°03'0 0.0
2017-Oct-09 13:30N 42°23' W 071°03'0 0.0
2017-Oct-09 13:00N 42°23' W 071°03'0 0.0
2017-Oct-09 12:30N 42°23' W 071°03'0 0.0
2017-Oct-09 12:00N 42°23' W 071°03'0 0.0
2017-Oct-09 11:30N 42°23' W 071°03'0 0.0
2017-Oct-09 11:00N 42°23' W 071°03'0 0.6
2017-Oct-09 10:30N 42°23' W 071°03'1 2.1
2017-Oct-09 10:00N 42°23' W 071°02'1 1.5
2017-Oct-09 09:31N 42°23' W 071°03'0 0.0
2017-Oct-09 09:00N 42°23' W 071°03'0 0.0
2017-Oct-09 08:30N 42°23' W 071°03'0 0.0
2017-Oct-09 08:00N 42°23' W 071°03'0 0.0
2017-Oct-09 07:30N 42°23' W 071°03'0 0.0
2017-Oct-09 07:00N 42°23' W 071°03'0 0.1
2017-Oct-09 06:30N 42°23' W 071°03'0 0.0
2017-Oct-09 06:00N 42°23' W 071°03'0 0.9
2017-Oct-09 05:30N 42°23' W 071°02'0 0.9
2017-Oct-09 05:00N 42°23' W 071°02'1 1.1
2017-Oct-09 04:30N 42°24' W 071°01'1 2.7
2017-Oct-09 04:00N 42°23' W 071°03'  

Dump ship's entire track history